Time;durP1;ratioP1;P1;durP2;ratioP2;P2;SDS_P1;SDS_P2;PMS_P1;PMS_P2;Temp;Humidity;BMP_temperature;BMP_pressure;BME280_temperature;BME280_humidity;BME280_pressure;Samples;Min_cycle;Max_cycle;Signal;HPM_P1;HPM_P2
2023/01/28 00:00:10;;;;;;;4.10;3.77;;;;;;;6.87;64.64;93963.78;5070957;28;20190;-46
2023/01/28 00:02:36;;;;;;;4.27;3.93;;;;;;;6.86;64.49;93962.13;5071235;28;20197;-46
2023/01/28 00:05:04;;;;;;;4.20;3.83;;;;;;;6.72;64.54;93940.47;5071472;28;20236;-48
2023/01/28 00:07:31;;;;;;;4.50;4.10;;;;;;;6.82;64.67;93956.50;5070942;28;20804;-46
2023/01/28 00:09:58;;;;;;;4.23;3.83;;;;;;;6.86;64.44;93978.19;5071616;28;20182;-46
2023/01/28 00:12:26;;;;;;;3.57;3.27;;;;;;;6.87;64.53;93981.56;5070520;28;20191;-48
2023/01/28 00:14:52;;;;;;;4.40;4.00;;;;;;;6.75;64.60;93963.09;5070914;28;20560;-46
2023/01/28 00:17:20;;;;;;;4.80;4.30;;;;;;;6.87;64.44;93982.34;5070853;28;20221;-47
2023/01/28 00:19:47;;;;;;;4.37;3.97;;;;;;;6.89;64.46;93989.84;5070975;28;20190;-47
2023/01/28 00:22:14;;;;;;;3.87;3.50;;;;;;;6.85;64.47;93986.75;5070821;28;20187;-47
2023/01/28 00:24:41;;;;;;;4.17;3.80;;;;;;;6.88;64.05;93993.31;5071123;28;20202;-46
2023/01/28 00:27:08;;;;;;;4.10;3.80;;;;;;;6.88;64.30;93999.19;5070670;28;20667;-47
2023/01/28 00:29:34;;;;;;;4.60;4.13;;;;;;;6.88;64.45;93995.88;5070284;28;20244;-47
2023/01/28 00:32:01;;;;;;;5.10;4.07;;;;;;;6.88;64.51;93994.13;5071218;28;20210;-49
2023/01/28 00:34:29;;;;;;;4.20;3.80;;;;;;;6.88;64.65;94001.75;5070353;28;20193;-46
2023/01/28 00:36:57;;;;;;;3.87;3.53;;;;;;;6.89;64.51;94000.81;5070694;28;20275;-46
2023/01/28 00:39:24;;;;;;;4.90;4.23;;;;;;;6.90;64.49;94009.22;5070465;28;20226;-45
2023/01/28 00:41:51;;;;;;;3.90;3.60;;;;;;;6.89;64.25;94003.34;5070285;28;20286;-45
2023/01/28 00:44:18;;;;;;;4.00;3.60;;;;;;;6.89;64.36;94016.06;5070410;28;20186;-48
2023/01/28 00:46:45;;;;;;;4.20;3.90;;;;;;;6.87;64.33;94006.97;5070051;28;20579;-46
2023/01/28 00:49:11;;;;;;;4.10;3.77;;;;;;;6.89;64.34;94010.97;5070208;28;20191;-47
2023/01/28 00:51:39;;;;;;;4.13;3.73;;;;;;;6.89;64.35;94010.16;5070559;28;20198;-47
2023/01/28 00:54:07;;;;;;;4.10;3.70;;;;;;;6.88;64.42;94014.44;5070741;28;20636;-46
2023/01/28 00:56:35;;;;;;;4.07;3.77;;;;;;;6.85;64.32;94007.09;5070404;28;20686;-45
2023/01/28 00:59:02;;;;;;;4.13;3.47;;;;;;;6.86;64.36;94013.75;5070227;28;20190;-45
2023/01/28 01:01:29;;;;;;;4.13;3.73;;;;;;;6.85;64.46;94017.25;5071709;28;20289;-48
2023/01/28 01:04:01;;;;;;;4.20;3.80;;;;;;;6.85;64.23;94016.44;5091139;28;20203;-48
2023/01/28 01:06:29;;;;;;;3.87;3.43;;;;;;;6.85;64.40;94017.25;5090630;28;20212;-48
2023/01/28 01:08:57;;;;;;;3.67;3.37;;;;;;;6.85;64.41;94012.16;5090541;28;20277;-47
2023/01/28 01:11:24;;;;;;;4.40;4.00;;;;;;;6.84;64.38;94015.66;5071571;28;20186;-47
2023/01/28 01:13:53;;;;;;;4.23;3.80;;;;;;;6.83;64.43;94008.16;5069976;28;20281;-46
2023/01/28 01:16:23;;;;;;;4.30;4.00;;;;;;;6.78;64.37;94004.28;5069888;28;20304;-47
2023/01/28 01:18:51;;;;;;;4.00;3.70;;;;;;;6.83;64.15;94011.50;5069952;28;20207;-47
2023/01/28 01:21:20;;;;;;;3.67;3.37;;;;;;;6.81;64.34;94010.03;5069648;28;20182;-46
2023/01/28 01:23:47;;;;;;;3.57;3.27;;;;;;;6.81;64.41;94015.91;5070058;28;20183;-48
2023/01/28 01:26:16;;;;;;;5.43;4.50;;;;;;;6.81;64.12;94018.44;5070035;28;20248;-47
2023/01/28 01:28:43;;;;;;;3.60;3.30;;;;;;;6.62;64.44;93986.19;5069190;28;20644;-47
2023/01/28 01:31:13;;;;;;;4.20;3.80;;;;;;;6.78;64.37;94016.19;5069273;28;20186;-46
2023/01/28 01:33:41;;;;;;;3.87;3.50;;;;;;;6.60;64.21;93990.59;5069048;28;20278;-45
2023/01/28 01:36:09;;;;;;;4.40;3.67;;;;;;;6.78;64.21;94021.28;5069346;28;20198;-45
2023/01/28 01:38:35;;;;;;;4.27;3.90;;;;;;;6.73;64.45;94014.00;5069677;28;20225;-47
2023/01/28 01:41:03;;;;;;;4.07;3.67;;;;;;;6.76;64.26;94026.47;5069085;28;20190;-46
2023/01/28 01:46:33;;;;;;;4.17;3.77;;;;;;;6.74;64.33;94023.25;5106848;27;20553;-49
2023/01/28 01:49:08;;;;;;;4.53;4.13;;;;;;;6.74;64.47;94030.88;5107013;28;20279;-46
2023/01/28 01:51:36;;;;;;;4.10;3.67;;;;;;;6.54;64.42;93997.00;5106706;28;20264;-46
2023/01/28 01:54:04;;;;;;;4.40;4.00;;;;;;;6.73;64.46;94025.91;5106925;28;20204;-48
2023/01/28 01:56:36;;;;;;;4.63;4.10;;;;;;;6.67;64.13;94022.16;5106400;28;20661;-48
2023/01/28 01:59:05;;;;;;;4.63;4.23;;;;;;;6.70;64.54;94021.91;5106732;28;20200;-47
2023/01/28 02:01:33;;;;;;;3.93;3.63;;;;;;;6.68;64.58;94023.78;5106852;28;20907;-46
2023/01/28 02:04:06;;;;;;;4.73;3.90;;;;;;;6.70;64.65;94027.00;5106580;28;20193;-49
2023/01/28 02:06:35;;;;;;;4.40;4.00;;;;;;;6.69;64.46;94027.13;5106411;28;20592;-47
2023/01/28 02:09:02;;;;;;;4.27;3.87;;;;;;;6.71;64.51;94030.34;5106792;28;20652;-47
2023/01/28 02:11:33;;;;;;;5.07;4.57;;;;;;;6.70;64.69;94031.28;5106994;28;20271;-47
2023/01/28 02:14:04;;;;;;;3.90;3.60;;;;;;;6.68;64.62;94026.31;5106921;28;20300;-47
2023/01/28 02:16:33;;;;;;;4.03;3.63;;;;;;;6.66;64.56;94030.72;5106199;28;20563;-49
2023/01/28 02:19:00;;;;;;;4.70;4.20;;;;;;;6.68;64.63;94026.31;5106823;28;20192;-48
2023/01/28 02:22:03;;;;;;;3.93;3.20;;;;;;;6.71;64.66;94036.22;5106039;28;20177;-48
2023/01/28 02:24:52;;;;;;;6.37;4.23;;;;;;;6.71;64.36;94038.75;5106508;28;20295;-49
2023/01/28 02:27:31;;;;;;;4.63;3.97;;;;;;;6.70;64.69;94043.97;5105904;28;20197;-48
2023/01/28 02:30:06;;;;;;;3.80;3.50;;;;;;;6.69;64.51;94042.34;5105863;28;20185;-47
2023/01/28 02:32:39;;;;;;;4.00;3.70;;;;;;;6.69;64.48;94040.66;5106290;28;20192;-47
2023/01/28 02:35:14;;;;;;;4.73;4.33;;;;;;;6.69;64.65;94037.28;5106329;28;20189;-49
2023/01/28 02:37:47;;;;;;;4.57;4.17;;;;;;;6.69;64.47;94038.09;5105921;28;20188;-48
2023/01/28 02:40:18;;;;;;;3.93;3.63;;;;;;;6.70;64.39;94041.44;5106123;28;20680;-47
2023/01/28 02:42:45;;;;;;;4.13;3.73;;;;;;;6.51;64.52;94004.88;5105771;28;20185;-47
2023/01/28 02:45:20;;;;;;;4.60;4.20;;;;;;;6.71;64.51;94041.31;5105770;28;20592;-50
2023/01/28 02:47:58;;;;;;;3.77;3.47;;;;;;;6.69;64.37;94040.66;5105688;28;20188;-47
2023/01/28 02:50:36;;;;;;;4.23;3.83;;;;;;;6.66;64.45;94038.34;5108370;28;20189;-46
2023/01/28 02:56:07;;;;;;;4.40;3.60;;;;;;;6.66;64.23;94030.72;5107112;28;20327;-50
2023/01/28 02:58:39;;;;;;;4.03;3.63;;;;;;;6.49;64.33;94009.31;5100399;28;20189;-50
2023/01/28 03:01:16;;;;;;;3.50;3.30;;;;;;;6.66;64.37;94038.34;5101141;28;20546;-49
2023/01/28 03:03:55;;;;;;;4.33;3.90;;;;;;;6.68;64.31;94046.63;5097342;28;20691;-49
2023/01/28 03:06:29;;;;;;;4.27;3.87;;;;;;;6.68;64.42;94045.84;5095256;28;20229;-47
2023/01/28 03:36:53;;;;;;;4.17;3.83;;;;;;;6.64;64.44;94052.09;5091203;28;20201;-49
2023/01/28 03:39:23;;;;;;;3.50;3.20;;;;;;;6.65;64.44;94051.16;5091425;28;20193;-47
2023/01/28 03:41:57;;;;;;;3.87;3.57;;;;;;;6.66;64.34;94055.34;5091240;28;20613;-47
2023/01/28 03:47:10;;;;;;;4.20;3.80;;;;;;;6.64;64.39;94057.19;5074763;28;20295;-48
2023/01/28 03:49:40;;;;;;;3.60;3.30;;;;;;;6.64;64.42;94064.81;5091578;28;20239;-48
2023/01/28 03:52:07;;;;;;;4.20;3.90;;;;;;;6.64;64.19;94070.69;5091417;28;20281;-47
2023/01/28 03:54:33;;;;;;;4.30;3.90;;;;;;;6.26;64.40;94012.94;5091558;28;20193;-48
2023/01/28 03:57:00;;;;;;;3.97;3.67;;;;;;;6.64;64.30;94065.59;5091150;28;20190;-48
2023/01/28 03:59:27;;;;;;;4.97;4.30;;;;;;;6.63;64.34;94074.16;5090980;28;20243;-48
2023/01/28 04:01:54;;;;;;;4.00;3.67;;;;;;;6.64;64.31;94069.88;5090457;28;20205;-48
2023/01/28 04:04:23;;;;;;;4.33;3.90;;;;;;;6.61;64.26;94067.63;5091181;28;20617;-49
2023/01/28 04:06:52;;;;;;;4.13;3.73;;;;;;;6.51;64.40;94058.22;5090412;28;20217;-49
2023/01/28 04:09:20;;;;;;;4.17;3.77;;;;;;;6.64;64.23;94077.50;5090031;28;20201;-48
2023/01/28 04:11:47;;;;;;;4.77;3.87;;;;;;;6.62;64.20;94080.19;5092666;28;20197;-48
2023/01/28 04:14:15;;;;;;;4.30;3.90;;;;;;;6.55;64.04;94066.38;5091510;28;20239;-48
2023/01/28 04:16:42;;;;;;;6.23;3.97;;;;;;;6.63;64.09;94086.06;5091024;28;20630;-47
2023/01/28 04:19:09;;;;;;;4.03;3.73;;;;;;;6.62;64.18;94082.72;5091062;28;20649;-49
2023/01/28 04:21:36;;;;;;;4.03;3.70;;;;;;;6.63;64.15;94088.63;5090710;28;20645;-46
2023/01/28 04:24:05;;;;;;;4.03;3.50;;;;;;;6.63;64.35;94088.63;5095345;28;20193;-48
2023/01/28 04:26:32;;;;;;;4.20;3.73;;;;;;;6.60;64.37;94089.66;5096254;28;20259;-48
2023/01/28 04:28:58;;;;;;;4.93;4.00;;;;;;;6.61;64.18;94090.50;5094938;28;20193;-50
2023/01/28 04:31:25;;;;;;;4.90;4.00;;;;;;;6.62;64.54;94089.56;5090494;28;20197;-47
2023/01/28 04:33:52;;;;;;;4.37;3.97;;;;;;;6.62;64.26;94099.72;5090271;28;20178;-48
2023/01/28 04:36:19;;;;;;;4.60;4.20;;;;;;;6.60;64.21;94091.41;5090602;28;20246;-48
2023/01/28 04:38:45;;;;;;;3.80;3.40;;;;;;;6.58;64.20;94099.16;5090332;28;20194;-48
2023/01/28 04:41:14;;;;;;;4.40;3.93;;;;;;;6.44;64.22;94077.47;5090986;28;20186;-47
2023/01/28 04:43:41;;;;;;;4.40;4.00;;;;;;;6.58;64.33;94103.44;5090077;28;20610;-49
2023/01/28 04:46:08;;;;;;;4.03;3.67;;;;;;;6.58;64.49;94105.97;5089468;28;20281;-49
2023/01/28 04:48:35;;;;;;;4.53;4.13;;;;;;;6.56;64.41;94118.78;5089953;28;20185;-49
2023/01/28 04:51:02;;;;;;;4.20;3.90;;;;;;;6.58;64.35;94121.22;5090391;28;20273;-48
2023/01/28 04:53:29;;;;;;;4.03;3.60;;;;;;;6.56;64.28;94113.72;5090122;28;20192;-50
2023/01/28 04:55:56;;;;;;;4.30;3.90;;;;;;;6.06;64.42;94042.53;5090121;28;20198;-47
2023/01/28 04:58:24;;;;;;;4.30;3.90;;;;;;;6.57;64.41;94114.53;5089593;28;20198;-48
2023/01/28 05:00:55;;;;;;;4.07;3.73;;;;;;;6.56;64.58;94120.53;5089724;28;20621;-48
2023/01/28 05:03:22;;;;;;;4.23;3.90;;;;;;;6.56;64.53;94121.34;5089676;28;20690;-49
2023/01/28 05:05:48;;;;;;;5.20;4.53;;;;;;;6.42;64.54;94102.16;5089712;28;20221;-47
2023/01/28 05:08:15;;;;;;;4.17;3.77;;;;;;;6.54;64.45;94121.47;5089543;28;20626;-46
2023/01/28 05:10:42;;;;;;;4.23;3.73;;;;;;;6.56;64.58;94128.16;5089849;28;20189;-49
2023/01/28 05:13:09;;;;;;;4.40;4.00;;;;;;;6.54;64.47;94134.16;5089532;28;20194;-47
2023/01/28 05:15:37;;;;;;;4.40;4.00;;;;;;;6.55;64.41;94129.88;5089467;28;20246;-47
2023/01/28 05:18:04;;;;;;;4.83;4.03;;;;;;;6.56;64.46;94135.78;5089946;28;20182;-48
2023/01/28 05:20:31;;;;;;;5.47;4.30;;;;;;;6.54;64.43;94136.72;5089700;28;20186;-47
2023/01/28 05:22:58;;;;;;;4.23;3.83;;;;;;;6.54;64.40;94136.72;5089773;28;20629;-46
2023/01/28 05:25:26;;;;;;;5.90;4.33;;;;;;;6.54;64.39;94139.25;5089382;28;20593;-46
2023/01/28 05:27:53;;;;;;;4.40;4.00;;;;;;;6.51;64.58;94131.88;5089125;28;20193;-46
2023/01/28 05:30:20;;;;;;;6.33;4.40;;;;;;;6.57;64.41;94139.94;5088792;28;20193;-46
2023/01/28 05:32:49;;;;;;;4.43;3.97;;;;;;;6.32;64.38;94103.06;5089235;28;20235;-48
2023/01/28 05:35:16;;;;;;;4.23;3.67;;;;;;;6.56;64.41;94148.47;5089403;28;20292;-49
2023/01/28 05:37:43;;;;;;;4.23;3.83;;;;;;;6.54;64.41;94151.94;5089315;28;20194;-50
2023/01/28 05:40:11;;;;;;;4.60;4.20;;;;;;;6.42;64.53;94130.09;5089150;28;20185;-47
2023/01/28 05:42:37;;;;;;;4.10;3.73;;;;;;;6.56;64.30;94156.09;5089504;28;20285;-47
2023/01/28 05:45:05;;;;;;;5.07;4.57;;;;;;;6.56;64.21;94159.44;5088817;28;20293;-49
2023/01/28 05:47:33;;;;;;;4.60;4.20;;;;;;;6.55;64.11;94160.38;5089438;28;20554;-52
2023/01/28 05:50:01;;;;;;;4.67;4.20;;;;;;;6.56;64.16;94158.63;5089763;28;20181;-50
2023/01/28 05:52:28;;;;;;;4.53;4.13;;;;;;;6.56;64.15;94151.00;5091115;28;20189;-50
2023/01/28 05:54:54;;;;;;;4.33;3.90;;;;;;;6.56;64.36;94163.72;5091440;28;20185;-47
2023/01/28 05:57:21;;;;;;;4.70;4.30;;;;;;;6.56;64.14;94156.88;5090177;28;20186;-49
2023/01/28 05:59:48;;;;;;;4.97;4.17;;;;;;;6.53;64.15;94160.50;5089901;28;20193;-48
2023/01/28 06:02:15;;;;;;;4.97;4.47;;;;;;;6.57;64.07;94163.59;5088712;28;20194;-47
2023/01/28 06:04:41;;;;;;;4.70;4.30;;;;;;;6.56;64.06;94169.59;5089216;28;20238;-47
2023/01/28 06:07:12;;;;;;;5.47;4.40;;;;;;;6.53;64.10;94172.41;5089236;28;20213;-47
2023/01/28 06:09:38;;;;;;;4.77;4.27;;;;;;;6.57;64.13;94180.59;5089797;28;20250;-47
2023/01/28 06:12:06;;;;;;;4.80;4.30;;;;;;;6.53;64.14;94175.75;5088864;28;20193;-45
2023/01/28 06:14:32;;;;;;;4.63;4.23;;;;;;;6.56;64.13;94182.28;5091693;28;20569;-47
2023/01/28 06:16:59;;;;;;;6.00;5.00;;;;;;;6.51;63.92;94182.66;5093321;28;20282;-50
2023/01/28 06:19:27;;;;;;;4.13;3.73;;;;;;;6.57;64.00;94193.28;5091764;28;20190;-46
2023/01/28 06:21:53;;;;;;;3.70;3.40;;;;;;;6.57;63.87;94195.81;5089666;28;20201;-48
2023/01/28 06:24:22;;;;;;;4.03;3.73;;;;;;;6.38;63.98;94168.56;5089052;28;20661;-47
2023/01/28 06:26:48;;;;;;;4.90;4.37;;;;;;;6.53;64.00;94193.53;5088708;28;20716;-48
2023/01/28 06:29:15;;;;;;;4.73;4.23;;;;;;;6.58;63.75;94205.84;5089086;28;20201;-46
2023/01/28 06:31:42;;;;;;;4.70;4.30;;;;;;;6.55;63.90;94198.47;5089981;28;20940;-46
2023/01/28 06:34:09;;;;;;;4.40;4.00;;;;;;;6.57;64.05;94204.25;5092638;28;20186;-47
2023/01/28 06:36:36;;;;;;;4.50;4.10;;;;;;;6.61;63.91;94218.31;5092768;28;20262;-49
2023/01/28 06:39:03;;;;;;;4.50;4.10;;;;;;;6.62;63.77;94219.91;5092500;28;20221;-46
2023/01/28 06:41:31;;;;;;;4.47;4.07;;;;;;;6.63;63.94;94221.50;5092375;28;20641;-47
2023/01/28 06:43:58;;;;;;;4.40;4.03;;;;;;;6.65;63.84;94223.91;5092316;28;20311;-47
2023/01/28 06:46:25;;;;;;;4.20;3.80;;;;;;;6.61;63.84;94225.13;5091972;28;20206;-47
2023/01/28 06:48:53;;;;;;;5.20;4.70;;;;;;;6.51;63.77;94207.28;5092164;28;20184;-47
2023/01/28 06:51:20;;;;;;;5.43;4.83;;;;;;;6.68;63.89;94244.81;5092327;28;20193;-48
2023/01/28 06:53:47;;;;;;;4.57;4.13;;;;;;;6.68;63.79;94234.63;5092167;28;20193;-52
2023/01/28 06:56:14;;;;;;;5.07;4.40;;;;;;;6.68;63.65;94244.81;5091959;28;20193;-48
2023/01/28 06:58:42;;;;;;;4.70;4.30;;;;;;;6.69;63.80;94241.34;5092474;28;20316;-49
2023/01/28 07:01:08;;;;;;;4.63;4.23;;;;;;;6.59;63.59;94232.06;5091847;28;20664;-47
2023/01/28 07:03:36;;;;;;;4.70;4.30;;;;;;;6.70;63.69;94245.50;5092516;28;20182;-48
2023/01/28 07:06:03;;;;;;;4.60;4.17;;;;;;;6.71;63.54;94246.31;5091925;28;20220;-48
2023/01/28 07:08:30;;;;;;;4.50;4.10;;;;;;;6.72;63.48;94250.44;5092044;28;20182;-47
2023/01/28 07:10:57;;;;;;;4.70;4.27;;;;;;;6.73;63.57;94263.00;5091654;28;20221;-46
2023/01/28 07:13:24;;;;;;;4.93;4.53;;;;;;;6.74;63.46;94258.75;5091743;28;20258;-48
2023/01/28 07:15:52;;;;;;;5.70;4.77;;;;;;;6.75;63.39;94262.91;5091238;28;20185;-47
2023/01/28 07:18:19;;;;;;;5.17;4.67;;;;;;;6.74;63.40;94256.22;5092140;28;20277;-48
2023/01/28 07:20:46;;;;;;;4.37;3.97;;;;;;;6.77;63.41;94273.75;5091608;28;20182;-46
2023/01/28 07:23:13;;;;;;;5.10;4.60;;;;;;;6.79;63.24;94275.25;5091843;28;20239;-48
2023/01/28 07:25:40;;;;;;;4.53;4.13;;;;;;;6.79;63.40;94270.16;5091736;28;20185;-46
2023/01/28 07:28:07;;;;;;;5.30;4.80;;;;;;;6.84;63.26;94277.41;5091707;28;20209;-47
2023/01/28 07:30:34;;;;;;;4.87;4.37;;;;;;;6.86;63.40;94274.72;5090831;28;20186;-46
2023/01/28 07:33:02;;;;;;;5.23;4.70;;;;;;;6.90;63.23;94274.34;5091559;28;20185;-48
2023/01/28 07:35:31;;;;;;;5.47;4.70;;;;;;;6.93;63.16;94280.94;5093077;28;20208;-47
2023/01/28 07:38:00;;;;;;;5.30;4.80;;;;;;;6.97;63.12;94290.72;5093954;28;20201;-47
2023/01/28 07:40:28;;;;;;;6.03;5.07;;;;;;;6.50;62.79;94216.63;5092570;28;20192;-46
2023/01/28 07:42:55;;;;;;;5.37;4.83;;;;;;;7.03;62.97;94297.03;5090698;28;20246;-48
2023/01/28 07:45:23;;;;;;;6.70;4.93;;;;;;;7.06;62.93;94291.69;5091222;28;20665;-48
2023/01/28 07:48:00;;;;;;;5.97;5.37;;;;;;;7.11;62.74;94296.41;5073418;28;20218;-48
2023/01/28 07:50:30;;;;;;;5.30;4.80;;;;;;;7.15;62.72;94302.84;5089013;28;20186;-48
2023/01/28 07:52:57;;;;;;;5.67;5.10;;;;;;;7.18;62.69;94300.88;5088837;28;20262;-49
2023/01/28 07:55:25;;;;;;;5.20;4.70;;;;;;;7.20;62.63;94303.28;5088344;28;20182;-48
2023/01/28 07:57:53;;;;;;;4.90;4.50;;;;;;;7.23;62.65;94298.75;5088496;28;20198;-48
2023/01/28 08:00:21;;;;;;;5.60;5.10;;;;;;;7.27;62.46;94301.84;5088325;28;20561;-47
2023/01/28 08:02:48;;;;;;;5.00;4.50;;;;;;;7.32;62.37;94311.63;5088284;28;20197;-46
2023/01/28 08:05:17;;;;;;;5.63;5.13;;;;;;;7.22;62.35;94293.78;5088872;28;20186;-46
2023/01/28 08:07:47;;;;;;;5.70;5.07;;;;;;;7.42;62.32;94313.25;5088151;28;20352;-49
2023/01/28 08:10:14;;;;;;;6.03;5.43;;;;;;;7.43;62.36;94309.00;5087783;28;20247;-48
2023/01/28 08:12:41;;;;;;;5.47;4.97;;;;;;;7.51;62.11;94311.69;5088219;28;20189;-49
2023/01/28 08:15:09;;;;;;;5.27;4.77;;;;;;;7.55;61.95;94315.59;5088364;28;20234;-47
2023/01/28 08:17:36;;;;;;;5.87;5.37;;;;;;;7.56;62.09;94316.44;5087867;28;20764;-47
2023/01/28 08:20:03;;;;;;;6.23;4.67;;;;;;;7.67;62.06;94323.94;5088198;28;20190;-45
2023/01/28 08:22:30;;;;;;;6.30;5.30;;;;;;;7.95;65.66;94310.50;5088446;28;20189;-45
2023/01/28 08:24:58;;;;;;;4.97;4.47;;;;;;;8.28;66.22;94327.16;5088031;28;20178;-44
2023/01/28 08:27:25;;;;;;;5.93;4.90;;;;;;;8.57;65.96;94320.50;5088668;28;20596;-45
2023/01/28 08:29:51;;;;;;;5.60;4.90;;;;;;;8.26;66.36;94246.72;5088090;28;20205;-46
2023/01/28 08:32:18;;;;;;;6.43;5.27;;;;;;;8.93;66.50;94329.16;5088005;28;20217;-46
2023/01/28 08:34:45;;;;;;;5.20;4.70;;;;;;;9.14;66.38;94314.50;5088062;28;20186;-44
2023/01/28 08:37:12;;;;;;;6.17;5.40;;;;;;;9.35;66.16;94313.50;5088214;28;20247;-45
2023/01/28 08:39:38;;;;;;;4.73;4.33;;;;;;;9.55;66.33;94320.16;5087676;28;20198;-44
2023/01/28 08:42:07;;;;;;;7.13;5.17;;;;;;;9.53;65.97;94282.00;5088246;28;20205;-46
2023/01/28 08:44:34;;;;;;;5.27;4.77;;;;;;;9.90;65.60;94309.25;5087372;28;20301;-44
2023/01/28 08:47:01;;;;;;;5.47;4.97;;;;;;;10.08;65.42;94323.78;5087169;28;20213;-48
2023/01/28 08:49:27;;;;;;;5.67;5.07;;;;;;;10.13;65.63;94322.41;5087333;28;20193;-46
2023/01/28 08:51:55;;;;;;;5.77;5.17;;;;;;;10.22;66.26;94320.75;5087623;28;20216;-48
2023/01/28 08:54:22;;;;;;;7.00;5.70;;;;;;;10.27;66.39;94313.47;5089135;28;20189;-49
2023/01/28 08:56:50;;;;;;;5.23;4.73;;;;;;;10.32;66.37;94316.41;5090238;28;20221;-46
2023/01/28 08:59:19;;;;;;;7.33;5.53;;;;;;;10.40;66.27;94324.13;5089866;28;20193;-48
2023/01/28 09:01:45;;;;;;;5.63;5.03;;;;;;;10.49;65.84;94328.41;5089053;28;20186;-48
2023/01/28 09:04:12;;;;;;;6.00;5.43;;;;;;;10.54;65.26;94333.88;5089555;28;20258;-46
2023/01/28 09:06:39;;;;;;;7.10;5.03;;;;;;;10.58;65.13;94331.00;5078266;28;20213;-47
2023/01/28 09:09:06;;;;;;;5.50;5.00;;;;;;;10.65;64.31;94326.91;5089898;28;20201;-47
2023/01/28 09:11:33;;;;;;;5.47;4.97;;;;;;;10.69;63.99;94329.03;5089179;28;20193;-47
2023/01/28 09:14:00;;;;;;;5.80;5.20;;;;;;;10.73;63.66;94330.34;5089910;28;20295;-49
2023/01/28 09:16:28;;;;;;;8.03;5.17;;;;;;;10.75;63.13;94336.13;5089449;28;20189;-47
2023/01/28 09:18:55;;;;;;;5.77;5.17;;;;;;;10.76;62.96;94339.50;5089835;28;20185;-47
2023/01/28 09:21:22;;;;;;;5.87;5.27;;;;;;;10.73;62.25;94339.78;5089990;28;20190;-47
2023/01/28 09:23:48;;;;;;;6.27;5.67;;;;;;;10.71;61.93;94344.25;5089753;28;20600;-47
2023/01/28 09:26:15;;;;;;;7.50;5.97;;;;;;;10.68;62.20;94347.09;5089964;28;20193;-47
2023/01/28 09:28:42;;;;;;;6.80;5.10;;;;;;;10.63;61.55;94344.19;5089437;28;20194;-48
2023/01/28 09:31:11;;;;;;;6.50;5.33;;;;;;;10.60;61.44;94335.03;5089166;28;20533;-46
2023/01/28 09:33:40;;;;;;;5.67;5.07;;;;;;;10.59;61.20;94337.75;5089768;28;20194;-48
2023/01/28 09:36:10;;;;;;;7.43;5.83;;;;;;;10.57;61.01;94339.63;5089350;28;20193;-48
2023/01/28 09:38:37;;;;;;;7.80;5.50;;;;;;;10.53;60.91;94337.38;5089863;28;20251;-48
2023/01/28 09:41:21;;;;;;;6.53;5.33;;;;;;;10.53;60.69;94339.09;5089834;28;20282;-48
2023/01/28 09:44:00;;;;;;;6.07;5.20;;;;;;;10.53;60.65;94331.44;5089513;28;20185;-46
2023/01/28 09:46:31;;;;;;;5.53;5.03;;;;;;;10.51;60.19;94329.03;5088956;28;20196;-47
2023/01/28 09:49:03;;;;;;;9.50;5.50;;;;;;;10.47;60.01;94325.16;5089715;28;20186;-47
2023/01/28 09:51:35;;;;;;;5.70;5.10;;;;;;;10.54;59.88;94333.06;5089610;28;20186;-47
2023/01/28 09:54:12;;;;;;;6.53;5.33;;;;;;;10.55;59.85;94339.78;5089810;28;20190;-48
2023/01/28 09:56:44;;;;;;;6.30;5.27;;;;;;;10.54;59.72;94338.19;5089282;28;20223;-46
2023/01/28 09:59:19;;;;;;;6.00;5.30;;;;;;;10.36;59.51;94314.34;5089568;28;20188;-49
2023/01/28 10:01:52;;;;;;;7.50;6.10;;;;;;;10.48;59.44;94339.56;5090639;28;20221;-47
2023/01/28 10:04:30;;;;;;;6.07;5.47;;;;;;;10.44;59.54;94332.31;5093124;28;20197;-47
2023/01/28 10:07:10;;;;;;;5.63;5.13;;;;;;;10.39;59.68;94332.75;5097544;28;20211;-47
2023/01/28 10:09:48;;;;;;;6.30;5.67;;;;;;;10.33;59.55;94323.13;5097772;28;20177;-48
2023/01/28 10:12:28;;;;;;;7.00;5.80;;;;;;;10.31;59.55;94325.00;5093563;28;20196;-49
2023/01/28 10:15:10;;;;;;;6.73;6.03;;;;;;;10.22;59.39;94326.66;5093493;28;20189;-48
2023/01/28 10:17:42;;;;;;;6.57;5.80;;;;;;;10.18;59.53;94332.19;5093243;28;20662;-46
2023/01/28 10:20:20;;;;;;;8.93;6.33;;;;;;;10.14;59.58;94333.44;5092715;28;20193;-48
2023/01/28 10:22:53;;;;;;;6.33;5.73;;;;;;;10.07;59.55;94333.22;5093251;28;20205;-47
2023/01/28 10:25:22;;;;;;;6.53;5.93;;;;;;;10.04;59.62;94326.63;5092799;28;20201;-47
2023/01/28 10:27:50;;;;;;;6.50;5.70;;;;;;;9.94;59.50;94320.78;5092897;28;20237;-47
2023/01/28 10:30:21;;;;;;;6.70;6.00;;;;;;;9.98;59.74;94334.06;5091980;28;20193;-47
2023/01/28 10:32:52;;;;;;;7.20;6.47;;;;;;;9.97;59.52;94330.72;5092564;28;20189;-46
2023/01/28 10:35:21;;;;;;;6.63;6.00;;;;;;;9.90;59.71;94314.34;5092313;28;20272;-47
2023/01/28 10:37:48;;;;;;;6.33;5.17;;;;;;;9.97;59.42;94330.72;5092655;28;20323;-47
2023/01/28 10:40:16;;;;;;;8.57;7.23;;;;;;;9.97;59.44;94324.78;5092667;28;20190;-49
2023/01/28 10:42:44;;;;;;;8.47;6.70;;;;;;;9.94;59.29;94313.13;5097957;28;20189;-47
2023/01/28 10:45:19;;;;;;;6.47;5.83;;;;;;;10.02;59.04;94333.66;5098899;28;20256;-48
2023/01/28 10:47:50;;;;;;;6.20;5.60;;;;;;;10.08;59.05;94321.25;5091391;28;20307;-49
2023/01/28 10:50:22;;;;;;;7.37;5.90;;;;;;;10.14;59.04;94323.22;5092554;28;20189;-49
2023/01/28 10:52:56;;;;;;;8.30;6.87;;;;;;;10.19;58.89;94319.28;5092440;28;20229;-48
2023/01/28 10:55:26;;;;;;;6.97;6.07;;;;;;;10.26;58.47;94316.97;5091835;28;20309;-48
2023/01/28 10:57:54;;;;;;;7.83;6.33;;;;;;;10.33;58.34;94323.13;5092378;28;20186;-46
2023/01/28 11:00:27;;;;;;;6.17;5.57;;;;;;;10.43;58.15;94315.38;5091968;28;20288;-47
2023/01/28 11:02:54;;;;;;;6.40;5.47;;;;;;;10.56;57.99;94320.94;5092103;28;20194;-48
2023/01/28 11:05:26;;;;;;;7.70;5.73;;;;;;;10.64;57.70;94321.00;5091832;28;20861;-49
2023/01/28 11:08:03;;;;;;;6.63;5.77;;;;;;;10.76;57.62;94322.38;5092190;28;20244;-49
2023/01/28 11:10:32;;;;;;;5.47;4.97;;;;;;;10.85;57.30;94330.94;5091884;28;20197;-47
2023/01/28 11:13:01;;;;;;;6.13;5.53;;;;;;;10.91;57.33;94327.75;5091861;28;20193;-47
2023/01/28 11:15:28;;;;;;;6.13;5.53;;;;;;;10.93;57.13;94322.50;5092135;28;20228;-48
2023/01/28 11:17:58;;;;;;;6.57;5.87;;;;;;;10.97;57.23;94328.94;5091744;28;20186;-49
2023/01/28 11:20:28;;;;;;;6.17;5.20;;;;;;;10.98;57.06;94323.66;5092001;28;20197;-49
2023/01/28 11:22:55;;;;;;;6.30;5.67;;;;;;;11.01;56.97;94325.94;5092099;28;20189;-48
2023/01/28 11:25:30;;;;;;;6.70;6.10;;;;;;;11.04;56.85;94317.13;5091431;28;20193;-51
2023/01/28 11:27:58;;;;;;;6.63;5.93;;;;;;;11.09;56.76;94324.38;5091810;28;20657;-47
2023/01/28 11:30:28;;;;;;;6.27;5.63;;;;;;;11.12;56.67;94317.19;5091391;28;20193;-47
2023/01/28 11:32:58;;;;;;;6.13;5.53;;;;;;;11.18;56.77;94315.78;5091018;28;20657;-47
2023/01/28 11:35:29;;;;;;;5.10;4.50;;;;;;;11.29;62.01;94310.44;5088223;28;20190;-48
2023/01/28 11:37:57;;;;;;;6.07;5.37;;;;;;;11.56;64.09;94315.34;5090935;28;20182;-47
2023/01/28 11:40:25;;;;;;;5.13;4.43;;;;;;;11.75;62.45;94316.09;5090723;28;20224;-49
2023/01/28 11:42:54;;;;;;;5.17;4.67;;;;;;;11.86;62.13;94310.72;5090976;28;20189;-48
2023/01/28 11:45:30;;;;;;;5.87;5.20;;;;;;;11.89;61.59;94305.28;5090942;28;20233;-48
2023/01/28 11:48:16;;;;;;;5.93;5.37;;;;;;;11.94;61.15;94302.25;5090157;28;20648;-47
2023/01/28 11:50:51;;;;;;;5.33;4.83;;;;;;;11.77;60.86;94273.19;5091113;28;20193;-49
2023/01/28 11:53:34;;;;;;;5.87;5.27;;;;;;;12.05;59.94;94307.09;5091188;28;20208;-47
2023/01/28 11:56:22;;;;;;;7.50;5.20;;;;;;;12.09;59.63;94310.13;5090561;28;20185;-48
2023/01/28 11:58:57;;;;;;;5.20;4.70;;;;;;;12.09;59.24;94298.16;5090237;28;20446;-48
2023/01/28 12:01:32;;;;;;;6.00;5.40;;;;;;;12.14;58.79;94310.50;5090649;28;20200;-47
2023/01/28 12:04:20;;;;;;;6.33;4.80;;;;;;;12.24;58.67;94309.38;5090362;28;20859;-46
2023/01/28 12:07:08;;;;;;;5.93;4.67;;;;;;;12.37;58.97;94313.25;5090542;28;20224;-47
2023/01/28 12:09:45;;;;;;;5.13;4.63;;;;;;;12.39;59.80;94317.28;5091913;28;20193;-49
2023/01/28 12:12:34;;;;;;;5.27;4.77;;;;;;;12.37;59.93;94321.75;5091185;28;20290;-47
2023/01/28 12:15:21;;;;;;;5.37;4.87;;;;;;;12.34;59.90;94319.50;5088362;28;20251;-48
2023/01/28 12:18:03;;;;;;;5.67;5.17;;;;;;;12.29;59.57;94317.41;5091768;28;20189;-48
2023/01/28 12:20:35;;;;;;;5.53;5.03;;;;;;;12.25;59.35;94313.53;5091547;28;20219;-48
2023/01/28 12:23:32;;;;;;;6.37;5.77;;;;;;;12.21;58.80;94317.38;5090991;28;20193;-49
2023/01/28 12:26:11;;;;;;;5.67;5.17;;;;;;;12.18;58.80;94312.59;5091260;28;20572;-47